sensor_id;sensor_type;location;lat;lon;timestamp;pressure;altitude;pressure_sealevel;temperature;humidity
46756;BME280;32506;52.826;-1.192;2022-09-13T00:01:27;100589.22;;;18.60;50.83
46756;BME280;32506;52.826;-1.192;2022-09-13T00:03:53;100600.03;;;18.55;50.66
46756;BME280;32506;52.826;-1.192;2022-09-13T00:06:19;100595.41;;;18.50;50.58
46756;BME280;32506;52.826;-1.192;2022-09-13T00:08:45;100594.31;;;18.46;50.64
46756;BME280;32506;52.826;-1.192;2022-09-13T00:11:23;100587.00;;;18.41;50.65
46756;BME280;32506;52.826;-1.192;2022-09-13T00:13:49;100591.56;;;18.36;50.57
46756;BME280;32506;52.826;-1.192;2022-09-13T00:16:17;100595.88;;;18.32;50.52
46756;BME280;32506;52.826;-1.192;2022-09-13T00:18:43;100595.03;;;18.26;50.47
46756;BME280;32506;52.826;-1.192;2022-09-13T00:21:14;100594.75;;;18.22;50.71
46756;BME280;32506;52.826;-1.192;2022-09-13T00:23:43;100593.66;;;18.18;50.42
46756;BME280;32506;52.826;-1.192;2022-09-13T00:26:21;100591.75;;;18.14;50.54
46756;BME280;32506;52.826;-1.192;2022-09-13T00:31:36;100593.00;;;18.01;50.33
46756;BME280;32506;52.826;-1.192;2022-09-13T00:34:02;100588.13;;;17.98;50.34
46756;BME280;32506;52.826;-1.192;2022-09-13T00:36:27;100591.63;;;17.93;50.18
46756;BME280;32506;52.826;-1.192;2022-09-13T00:38:54;100596.72;;;17.89;50.15
46756;BME280;32506;52.826;-1.192;2022-09-13T00:41:19;100587.75;;;17.84;50.18
46756;BME280;32506;52.826;-1.192;2022-09-13T00:43:59;100599.91;;;17.81;50.22
46756;BME280;32506;52.826;-1.192;2022-09-13T00:49:02;100605.78;;;17.68;50.13
46756;BME280;32506;52.826;-1.192;2022-09-13T00:51:30;100607.38;;;17.64;50.21
46756;BME280;32506;52.826;-1.192;2022-09-13T00:53:56;100601.13;;;17.58;50.07
46756;BME280;32506;52.826;-1.192;2022-09-13T00:56:38;100598.91;;;17.55;50.10
46756;BME280;32506;52.826;-1.192;2022-09-13T00:59:32;100605.91;;;17.51;50.01
46756;BME280;32506;52.826;-1.192;2022-09-13T01:02:01;100608.81;;;17.44;50.18
46756;BME280;32506;52.826;-1.192;2022-09-13T01:04:29;100612.56;;;17.38;50.08
46756;BME280;32506;52.826;-1.192;2022-09-13T01:07:00;100616.03;;;17.33;50.13
46756;BME280;32506;52.826;-1.192;2022-09-13T01:09:27;100618.69;;;17.28;49.84
46756;BME280;32506;52.826;-1.192;2022-09-13T01:12:00;100609.47;;;17.24;49.78
46756;BME280;32506;52.826;-1.192;2022-09-13T01:14:32;100606.72;;;17.19;50.13
46756;BME280;32506;52.826;-1.192;2022-09-13T01:16:59;100604.78;;;17.14;50.20
46756;BME280;32506;52.826;-1.192;2022-09-13T01:19:25;100600.97;;;17.10;50.27
46756;BME280;32506;52.826;-1.192;2022-09-13T01:30:15;100612.13;;;16.91;50.06
46756;BME280;32506;52.826;-1.192;2022-09-13T01:33:14;100605.59;;;16.87;50.06
46756;BME280;32506;52.826;-1.192;2022-09-13T01:35:56;100602.81;;;16.82;50.13
46756;BME280;32506;52.826;-1.192;2022-09-13T01:41:46;100603.53;;;16.72;50.07
46756;BME280;32506;52.826;-1.192;2022-09-13T01:45:05;100597.03;;;16.68;50.07
46756;BME280;32506;52.826;-1.192;2022-09-13T01:47:51;100607.19;;;16.61;50.08
46756;BME280;32506;52.826;-1.192;2022-09-13T01:53:41;100602.50;;;16.51;50.27
46756;BME280;32506;52.826;-1.192;2022-09-13T02:01:56;100599.84;;;16.34;50.10
46756;BME280;32506;52.826;-1.192;2022-09-13T02:04:26;100613.28;;;16.29;50.13
46756;BME280;32506;52.826;-1.192;2022-09-13T02:07:07;100619.16;;;16.26;50.10
46756;BME280;32506;52.826;-1.192;2022-09-13T02:09:39;100616.44;;;16.21;50.15
46756;BME280;32506;52.826;-1.192;2022-09-13T02:12:10;100617.97;;;16.17;49.92
46756;BME280;32506;52.826;-1.192;2022-09-13T02:14:42;100616.81;;;16.13;50.04
46756;BME280;32506;52.826;-1.192;2022-09-13T02:17:14;100617.34;;;16.09;50.04
46756;BME280;32506;52.826;-1.192;2022-09-13T02:22:17;100626.09;;;16.00;49.87
46756;BME280;32506;52.826;-1.192;2022-09-13T02:24:47;100617.69;;;15.96;49.97
46756;BME280;32506;52.826;-1.192;2022-09-13T02:27:18;100620.06;;;15.92;49.94
46756;BME280;32506;52.826;-1.192;2022-09-13T02:29:46;100608.97;;;15.89;49.80
46756;BME280;32506;52.826;-1.192;2022-09-13T02:32:17;100600.56;;;15.85;49.62
46756;BME280;32506;52.826;-1.192;2022-09-13T02:34:54;100598.63;;;15.81;49.80
46756;BME280;32506;52.826;-1.192;2022-09-13T02:37:23;100600.16;;;15.76;49.70
46756;BME280;32506;52.826;-1.192;2022-09-13T02:39:56;100598.97;;;15.72;49.80
46756;BME280;32506;52.826;-1.192;2022-09-13T02:45:06;100591.31;;;15.64;49.89
46756;BME280;32506;52.826;-1.192;2022-09-13T02:47:51;100599.09;;;15.60;49.66
46756;BME280;32506;52.826;-1.192;2022-09-13T02:53:17;100590.03;;;15.50;49.65
46756;BME280;32506;52.826;-1.192;2022-09-13T03:01:26;100586.84;;;15.36;49.66
46756;BME280;32506;52.826;-1.192;2022-09-13T03:03:52;100591.91;;;15.32;49.81
46756;BME280;32506;52.826;-1.192;2022-09-13T03:06:25;100585.34;;;15.28;49.73
46756;BME280;32506;52.826;-1.192;2022-09-13T03:08:52;100585.84;;;15.25;49.68
46756;BME280;32506;52.826;-1.192;2022-09-13T03:11:29;100578.53;;;15.20;49.55
46756;BME280;32506;52.826;-1.192;2022-09-13T03:22:55;100572.06;;;15.04;49.72
46756;BME280;32506;52.826;-1.192;2022-09-13T03:28:31;100577.00;;;14.96;49.77
46756;BME280;32506;52.826;-1.192;2022-09-13T03:31:14;100580.69;;;14.89;50.04
46756;BME280;32506;52.826;-1.192;2022-09-13T03:34:10;100581.97;;;14.87;49.84
46756;BME280;32506;52.826;-1.192;2022-09-13T03:40:31;100593.94;;;14.79;49.87
46756;BME280;32506;52.826;-1.192;2022-09-13T03:42:31;100592.19;;;14.73;49.94
46756;BME280;32506;52.826;-1.192;2022-09-13T03:45:00;100590.78;;;14.70;49.94
46756;BME280;32506;52.826;-1.192;2022-09-13T03:47:30;100600.19;;;14.68;50.05
46756;BME280;32506;52.826;-1.192;2022-09-13T03:49:57;100601.69;;;14.64;49.95
46756;BME280;32506;52.826;-1.192;2022-09-13T03:52:23;100604.59;;;14.62;49.78
46756;BME280;32506;52.826;-1.192;2022-09-13T03:54:49;100599.94;;;14.57;49.88
46756;BME280;32506;52.826;-1.192;2022-09-13T03:57:20;100605.56;;;14.56;50.07
46756;BME280;32506;52.826;-1.192;2022-09-13T03:59:51;100601.50;;;14.53;50.02
46756;BME280;32506;52.826;-1.192;2022-09-13T04:02:18;100591.19;;;14.50;50.04
46756;BME280;32506;52.826;-1.192;2022-09-13T04:04:45;100588.41;;;14.45;50.24
46756;BME280;32506;52.826;-1.192;2022-09-13T04:07:13;100595.91;;;14.43;50.35
46756;BME280;32506;52.826;-1.192;2022-09-13T04:09:40;100595.53;;;14.39;50.43
46756;BME280;32506;52.826;-1.192;2022-09-13T04:12:05;100604.94;;;14.37;50.29
46756;BME280;32506;52.826;-1.192;2022-09-13T04:14:31;100597.06;;;14.35;50.27
46756;BME280;32506;52.826;-1.192;2022-09-13T04:16:57;100603.97;;;14.31;50.44
46756;BME280;32506;52.826;-1.192;2022-09-13T04:19:24;100609.84;;;14.28;50.19
46756;BME280;32506;52.826;-1.192;2022-09-13T04:21:50;100602.81;;;14.27;50.30
46756;BME280;32506;52.826;-1.192;2022-09-13T04:24:17;100597.13;;;14.23;50.16
46756;BME280;32506;52.826;-1.192;2022-09-13T04:26:43;100596.78;;;14.20;50.39
46756;BME280;32506;52.826;-1.192;2022-09-13T04:29:09;100602.63;;;14.17;50.12
46756;BME280;32506;52.826;-1.192;2022-09-13T04:31:36;100599.59;;;14.13;50.12
46756;BME280;32506;52.826;-1.192;2022-09-13T04:34:02;100605.44;;;14.10;50.22
46756;BME280;32506;52.826;-1.192;2022-09-13T04:36:28;100597.81;;;14.07;49.99
46756;BME280;32506;52.826;-1.192;2022-09-13T04:38:54;100603.44;;;14.05;50.08
46756;BME280;32506;52.826;-1.192;2022-09-13T04:41:19;100604.97;;;14.01;49.96
46756;BME280;32506;52.826;-1.192;2022-09-13T04:43:48;100604.59;;;13.98;50.14
46756;BME280;32506;52.826;-1.192;2022-09-13T04:46:14;100613.97;;;13.95;49.82
46756;BME280;32506;52.826;-1.192;2022-09-13T04:48:40;100615.25;;;13.92;49.88
46756;BME280;32506;52.826;-1.192;2022-09-13T04:51:06;100619.44;;;13.88;49.90
46756;BME280;32506;52.826;-1.192;2022-09-13T04:53:31;100618.06;;;13.86;50.06
46756;BME280;32506;52.826;-1.192;2022-09-13T04:56:01;100622.03;;;13.83;50.04
46756;BME280;32506;52.826;-1.192;2022-09-13T04:58:26;100619.00;;;13.80;49.99
46756;BME280;32506;52.826;-1.192;2022-09-13T05:00:51;100622.97;;;13.77;49.93
46756;BME280;32506;52.826;-1.192;2022-09-13T05:03:21;100627.97;;;13.73;49.92
46756;BME280;32506;52.826;-1.192;2022-09-13T05:05:47;100633.81;;;13.70;50.09
46756;BME280;32506;52.826;-1.192;2022-09-13T05:08:12;100625.41;;;13.67;49.89
46756;BME280;32506;52.826;-1.192;2022-09-13T05:10:37;100631.25;;;13.64;49.99
46756;BME280;32506;52.826;-1.192;2022-09-13T05:13:03;100625.28;;;13.62;49.96
46756;BME280;32506;52.826;-1.192;2022-09-13T05:15:28;100624.94;;;13.58;50.37
46756;BME280;32506;52.826;-1.192;2022-09-13T05:17:54;100631.59;;;13.55;50.26
46756;BME280;32506;52.826;-1.192;2022-09-13T05:20:19;100635.53;;;13.53;50.26
46756;BME280;32506;52.826;-1.192;2022-09-13T05:22:45;100643.22;;;13.49;50.32
46756;BME280;32506;52.826;-1.192;2022-09-13T05:25:11;100645.34;;;13.47;50.48
46756;BME280;32506;52.826;-1.192;2022-09-13T05:27:36;100639.63;;;13.43;50.31
46756;BME280;32506;52.826;-1.192;2022-09-13T05:30:02;100629.34;;;13.40;50.50
46756;BME280;32506;52.826;-1.192;2022-09-13T05:32:30;100629.78;;;13.37;50.30
46756;BME280;32506;52.826;-1.192;2022-09-13T05:34:55;100636.44;;;13.35;50.07
46756;BME280;32506;52.826;-1.192;2022-09-13T05:37:21;100638.50;;;13.33;50.36
46756;BME280;32506;52.826;-1.192;2022-09-13T05:39:46;100630.94;;;13.30;49.93
46756;BME280;32506;52.826;-1.192;2022-09-13T05:42:12;100628.69;;;13.26;50.04
46756;BME280;32506;52.826;-1.192;2022-09-13T05:44:37;100625.41;;;13.24;49.83
46756;BME280;32506;52.826;-1.192;2022-09-13T05:47:03;100625.66;;;13.23;49.99
46756;BME280;32506;52.826;-1.192;2022-09-13T05:49:28;100625.28;;;13.19;50.01
46756;BME280;32506;52.826;-1.192;2022-09-13T05:51:53;100630.03;;;13.17;50.04
46756;BME280;32506;52.826;-1.192;2022-09-13T05:54:19;100639.16;;;13.16;49.97
46756;BME280;32506;52.826;-1.192;2022-09-13T05:56:44;100635.31;;;13.12;49.78
46756;BME280;32506;52.826;-1.192;2022-09-13T05:59:11;100644.63;;;13.09;49.93
46756;BME280;32506;52.826;-1.192;2022-09-13T06:01:38;100643.22;;;13.07;49.72
46756;BME280;32506;52.826;-1.192;2022-09-13T06:04:03;100647.97;;;13.05;49.81
46756;BME280;32506;52.826;-1.192;2022-09-13T06:06:29;100644.72;;;13.03;49.72
46756;BME280;32506;52.826;-1.192;2022-09-13T06:08:55;100651.34;;;13.00;49.72
46756;BME280;32506;52.826;-1.192;2022-09-13T06:11:22;100650.75;;;12.98;49.75
46756;BME280;32506;52.826;-1.192;2022-09-13T06:13:49;100647.50;;;12.96;49.92
46756;BME280;32506;52.826;-1.192;2022-09-13T06:16:15;100643.16;;;12.95;49.77
46756;BME280;32506;52.826;-1.192;2022-09-13T06:18:42;100639.06;;;12.92;49.97
46756;BME280;32506;52.826;-1.192;2022-09-13T06:21:12;100635.81;;;12.90;49.96
46756;BME280;32506;52.826;-1.192;2022-09-13T06:23:45;100633.34;;;12.89;50.23
46756;BME280;32506;52.826;-1.192;2022-09-13T06:26:13;100634.41;;;12.88;50.03
46756;BME280;32506;52.826;-1.192;2022-09-13T06:28:39;100645.13;;;12.88;50.27
46756;BME280;32506;52.826;-1.192;2022-09-13T06:31:13;100641.03;;;12.85;50.10
46756;BME280;32506;52.826;-1.192;2022-09-13T06:33:40;100648.25;;;12.85;50.07
46756;BME280;32506;52.826;-1.192;2022-09-13T06:36:09;100652.00;;;12.84;50.19
46756;BME280;32506;52.826;-1.192;2022-09-13T06:38:35;100651.16;;;12.83;50.41
46756;BME280;32506;52.826;-1.192;2022-09-13T06:41:06;100654.66;;;12.84;50.55
46756;BME280;32506;52.826;-1.192;2022-09-13T06:43:33;100655.72;;;12.83;50.63
46756;BME280;32506;52.826;-1.192;2022-09-13T06:46:03;100646.03;;;12.82;50.75
46756;BME280;32506;52.826;-1.192;2022-09-13T06:48:34;100646.03;;;12.82;51.18
46756;BME280;32506;52.826;-1.192;2022-09-13T06:51:03;100651.38;;;12.82;50.82
46756;BME280;32506;52.826;-1.192;2022-09-13T06:53:29;100658.63;;;12.81;50.91
46756;BME280;32506;52.826;-1.192;2022-09-13T06:56:09;100675.53;;;12.82;51.29
46756;BME280;32506;52.826;-1.192;2022-09-13T06:58:37;100677.41;;;12.81;51.29
46756;BME280;32506;52.826;-1.192;2022-09-13T07:01:10;100668.28;;;12.82;51.15
46756;BME280;32506;52.826;-1.192;2022-09-13T07:03:51;100661.66;;;12.85;51.43
46756;BME280;32506;52.826;-1.192;2022-09-13T07:06:29;100661.66;;;12.85;51.41
46756;BME280;32506;52.826;-1.192;2022-09-13T07:08:57;100670.53;;;12.85;51.49
46756;BME280;32506;52.826;-1.192;2022-09-13T07:11:24;100667.84;;;12.85;51.85
46756;BME280;32506;52.826;-1.192;2022-09-13T07:13:53;100664.94;;;12.87;51.42
46756;BME280;32506;52.826;-1.192;2022-09-13T07:16:21;100663.91;;;12.88;51.52
46756;BME280;32506;52.826;-1.192;2022-09-13T07:18:51;100663.44;;;12.91;51.16
46756;BME280;32506;52.826;-1.192;2022-09-13T07:21:17;100660.75;;;12.91;51.60
46756;BME280;32506;52.826;-1.192;2022-09-13T07:23:42;100670.44;;;12.92;51.25
46756;BME280;32506;52.826;-1.192;2022-09-13T07:26:08;100666.50;;;12.95;51.21
46756;BME280;32506;52.826;-1.192;2022-09-13T07:28:39;100662.75;;;12.96;51.26
46756;BME280;32506;52.826;-1.192;2022-09-13T07:31:16;100658.00;;;12.98;51.11
46756;BME280;32506;52.826;-1.192;2022-09-13T07:33:43;100662.31;;;12.99;51.21
46756;BME280;32506;52.826;-1.192;2022-09-13T07:36:10;100668.25;;;13.01;51.43
46756;BME280;32506;52.826;-1.192;2022-09-13T07:38:39;100665.34;;;13.02;51.55
46756;BME280;32506;52.826;-1.192;2022-09-13T07:41:06;100668.63;;;13.04;51.49
46756;BME280;32506;52.826;-1.192;2022-09-13T07:43:33;100671.88;;;13.06;51.84
46756;BME280;32506;52.826;-1.192;2022-09-13T07:46:01;100669.00;;;13.08;51.95
46756;BME280;32506;52.826;-1.192;2022-09-13T07:48:29;100659.66;;;13.10;51.81
46756;BME280;32506;52.826;-1.192;2022-09-13T07:51:14;100655.94;;;13.12;52.48
46756;BME280;32506;52.826;-1.192;2022-09-13T07:53:40;100647.66;;;13.13;52.56
46756;BME280;32506;52.826;-1.192;2022-09-13T07:56:09;100647.22;;;13.16;52.55
46756;BME280;32506;52.826;-1.192;2022-09-13T07:58:36;100651.31;;;13.19;52.91
46756;BME280;32506;52.826;-1.192;2022-09-13T08:01:17;100640.91;;;13.22;53.11
46756;BME280;32506;52.826;-1.192;2022-09-13T08:03:43;100646.88;;;13.24;53.35
46756;BME280;32506;52.826;-1.192;2022-09-13T08:06:09;100658.56;;;13.30;53.43
46756;BME280;32506;52.826;-1.192;2022-09-13T08:08:36;100653.81;;;13.32;53.67
46756;BME280;32506;52.826;-1.192;2022-09-13T08:11:03;100648.81;;;13.36;53.54
46756;BME280;32506;52.826;-1.192;2022-09-13T08:13:29;100640.88;;;13.41;53.68
46756;BME280;32506;52.826;-1.192;2022-09-13T08:16:00;100626.19;;;13.43;54.06
46756;BME280;32506;52.826;-1.192;2022-09-13T08:18:25;100637.63;;;13.51;54.18
46756;BME280;32506;52.826;-1.192;2022-09-13T08:20:55;100641.50;;;13.55;54.44
46756;BME280;32506;52.826;-1.192;2022-09-13T08:23:21;100640.56;;;13.61;54.54
46756;BME280;32506;52.826;-1.192;2022-09-13T08:25:47;100642.34;;;13.67;54.89
46756;BME280;32506;52.826;-1.192;2022-09-13T08:28:16;100638.72;;;13.73;54.98
46756;BME280;32506;52.826;-1.192;2022-09-13T08:30:43;100644.81;;;13.81;55.64
46756;BME280;32506;52.826;-1.192;2022-09-13T08:33:10;100655.22;;;13.89;55.44
46756;BME280;32506;52.826;-1.192;2022-09-13T08:35:36;100654.03;;;13.97;55.79
46756;BME280;32506;52.826;-1.192;2022-09-13T08:38:02;100659.06;;;14.05;55.80
46756;BME280;32506;52.826;-1.192;2022-09-13T08:40:31;100662.19;;;14.14;56.10
46756;BME280;32506;52.826;-1.192;2022-09-13T08:45:30;100660.19;;;14.33;56.62
46756;BME280;32506;52.826;-1.192;2022-09-13T08:47:59;100655.28;;;14.41;56.91
46756;BME280;32506;52.826;-1.192;2022-09-13T08:50:29;100650.13;;;14.52;56.98
46756;BME280;32506;52.826;-1.192;2022-09-13T08:53:04;100651.16;;;14.63;57.02
46756;BME280;32506;52.826;-1.192;2022-09-13T08:55:50;100647.06;;;14.72;57.27
46756;BME280;32506;52.826;-1.192;2022-09-13T09:00:58;100658.56;;;14.96;57.84
46756;BME280;32506;52.826;-1.192;2022-09-13T09:06:11;100658.69;;;15.18;57.87
46756;BME280;32506;52.826;-1.192;2022-09-13T09:11:26;100670.16;;;15.42;58.50
46756;BME280;32506;52.826;-1.192;2022-09-13T09:16:43;100666.75;;;15.64;58.29
46756;BME280;32506;52.826;-1.192;2022-09-13T09:19:27;100662.34;;;15.75;58.24
46756;BME280;32506;52.826;-1.192;2022-09-13T09:22:01;100650.94;;;15.85;58.23
46756;BME280;32506;52.826;-1.192;2022-09-13T09:24:33;100654.38;;;15.97;58.35
46756;BME280;32506;52.826;-1.192;2022-09-13T09:27:00;100660.72;;;16.08;58.08
46756;BME280;32506;52.826;-1.192;2022-09-13T09:29:28;100661.34;;;16.15;58.56
46756;BME280;32506;52.826;-1.192;2022-09-13T09:32:00;100669.34;;;16.27;58.32
46756;BME280;32506;52.826;-1.192;2022-09-13T09:37:20;100649.19;;;16.52;58.23
46756;BME280;32506;52.826;-1.192;2022-09-13T09:39:47;100645.78;;;16.61;58.37
46756;BME280;32506;52.826;-1.192;2022-09-13T09:42:18;100643.22;;;16.72;58.59
46756;BME280;32506;52.826;-1.192;2022-09-13T09:44:49;100646.59;;;16.84;58.42
46756;BME280;32506;52.826;-1.192;2022-09-13T09:47:19;100639.44;;;16.95;58.77
46756;BME280;32506;52.826;-1.192;2022-09-13T09:52:44;100630.78;;;17.20;58.43
46756;BME280;32506;52.826;-1.192;2022-09-13T09:58:11;100621.00;;;17.47;59.05
46756;BME280;32506;52.826;-1.192;2022-09-13T10:00:51;100626.25;;;17.58;57.01
46756;BME280;32506;52.826;-1.192;2022-09-13T10:03:24;100624.13;;;17.66;56.70
46756;BME280;32506;52.826;-1.192;2022-09-13T10:06:10;100626.59;;;17.72;56.66
46756;BME280;32506;52.826;-1.192;2022-09-13T10:08:38;100616.41;;;17.80;56.03
46756;BME280;32506;52.826;-1.192;2022-09-13T10:11:04;100613.47;;;17.86;56.18
46756;BME280;32506;52.826;-1.192;2022-09-13T10:13:31;100600.28;;;17.95;56.68
46756;BME280;32506;52.826;-1.192;2022-09-13T10:16:04;100602.25;;;18.05;56.01
46756;BME280;32506;52.826;-1.192;2022-09-13T10:18:31;100609.34;;;18.16;56.07
46756;BME280;32506;52.826;-1.192;2022-09-13T10:21:21;100601.84;;;18.34;56.98
46756;BME280;32506;52.826;-1.192;2022-09-13T10:23:48;100588.34;;;18.44;56.56
46756;BME280;32506;52.826;-1.192;2022-09-13T10:26:22;100586.50;;;18.60;54.46
46756;BME280;32506;52.826;-1.192;2022-09-13T10:28:55;100584.91;;;18.74;55.27
46756;BME280;32506;52.826;-1.192;2022-09-13T10:31:33;100589.06;;;18.92;54.69
46756;BME280;32506;52.826;-1.192;2022-09-13T10:34:05;100599.09;;;19.07;54.05
46756;BME280;32506;52.826;-1.192;2022-09-13T10:36:36;100594.22;;;19.25;53.28
46756;BME280;32506;52.826;-1.192;2022-09-13T10:39:05;100593.41;;;19.40;52.32
46756;BME280;32506;52.826;-1.192;2022-09-13T10:41:35;100595.28;;;19.55;51.77
46756;BME280;32506;52.826;-1.192;2022-09-13T10:44:05;100591.22;;;19.68;52.13
46756;BME280;32506;52.826;-1.192;2022-09-13T10:46:34;100587.16;;;19.75;51.02
46756;BME280;32506;52.826;-1.192;2022-09-13T10:49:01;100588.75;;;19.87;51.06
46756;BME280;32506;52.826;-1.192;2022-09-13T10:54:09;100583.81;;;20.15;50.00
46756;BME280;32506;52.826;-1.192;2022-09-13T10:56:40;100582.94;;;20.29;50.77
46756;BME280;32506;52.826;-1.192;2022-09-13T10:59:20;100578.53;;;20.44;49.23
46756;BME280;32506;52.826;-1.192;2022-09-13T11:01:55;100586.31;;;20.56;48.75
46756;BME280;32506;52.826;-1.192;2022-09-13T11:04:44;100590.91;;;20.71;47.89
46756;BME280;32506;52.826;-1.192;2022-09-13T11:07:24;100586.75;;;20.84;47.22
46756;BME280;32506;52.826;-1.192;2022-09-13T11:13:06;100571.88;;;21.10;47.06
46756;BME280;32506;52.826;-1.192;2022-09-13T11:18:58;100574.97;;;21.33;46.49
46756;BME280;32506;52.826;-1.192;2022-09-13T11:26:58;100562.91;;;21.74;46.65
46756;BME280;32506;52.826;-1.192;2022-09-13T11:35:16;100551.63;;;22.10;46.23
46756;BME280;32506;52.826;-1.192;2022-09-13T11:38:22;100552.00;;;22.22;45.79
46756;BME280;32506;52.826;-1.192;2022-09-13T11:46:23;100542.88;;;22.56;43.58
46756;BME280;32506;52.826;-1.192;2022-09-13T11:49:08;100550.06;;;22.66;44.41
46756;BME280;32506;52.826;-1.192;2022-09-13T11:57:42;100555.31;;;22.82;43.00
46756;BME280;32506;52.826;-1.192;2022-09-13T12:00:22;100549.56;;;22.83;42.76
46756;BME280;32506;52.826;-1.192;2022-09-13T12:05:40;100550.59;;;22.87;41.98
46756;BME280;32506;52.826;-1.192;2022-09-13T12:10:54;100548.22;;;23.00;43.37
46756;BME280;32506;52.826;-1.192;2022-09-13T12:13:25;100548.94;;;23.05;41.87
46756;BME280;32506;52.826;-1.192;2022-09-13T12:15:55;100556.50;;;23.08;41.18
46756;BME280;32506;52.826;-1.192;2022-09-13T12:18:41;100554.25;;;23.16;42.86
46756;BME280;32506;52.826;-1.192;2022-09-13T12:21:12;100561.22;;;23.22;42.78
46756;BME280;32506;52.826;-1.192;2022-09-13T12:26:20;100553.88;;;23.36;41.15
46756;BME280;32506;52.826;-1.192;2022-09-13T12:28:52;100553.00;;;23.41;40.55
46756;BME280;32506;52.826;-1.192;2022-09-13T12:31:26;100560.28;;;23.45;40.73
46756;BME280;32506;52.826;-1.192;2022-09-13T12:33:52;100562.38;;;23.49;41.23
46756;BME280;32506;52.826;-1.192;2022-09-13T12:44:45;100542.84;;;23.74;41.37
46756;BME280;32506;52.826;-1.192;2022-09-13T12:47:42;100543.16;;;23.87;40.17
46756;BME280;32506;52.826;-1.192;2022-09-13T12:50:38;100539.44;;;23.96;39.78
46756;BME280;32506;52.826;-1.192;2022-09-13T12:53:27;100540.03;;;24.07;40.87
46756;BME280;32506;52.826;-1.192;2022-09-13T13:02:02;100554.47;;;24.22;38.14
46756;BME280;32506;52.826;-1.192;2022-09-13T13:04:35;100551.94;;;24.25;36.79
46756;BME280;32506;52.826;-1.192;2022-09-13T13:07:15;100563.34;;;24.27;38.39
46756;BME280;32506;52.826;-1.192;2022-09-13T13:09:54;100569.03;;;24.31;37.53
46756;BME280;32506;52.826;-1.192;2022-09-13T13:12:37;100566.50;;;24.35;38.01
46756;BME280;32506;52.826;-1.192;2022-09-13T13:17:43;100569.09;;;24.40;38.68
46756;BME280;32506;52.826;-1.192;2022-09-13T13:23:14;100555.72;;;24.52;38.19
46756;BME280;32506;52.826;-1.192;2022-09-13T13:31:34;100555.72;;;24.66;38.55
46756;BME280;32506;52.826;-1.192;2022-09-13T13:38:57;100541.66;;;24.82;36.68
46756;BME280;32506;52.826;-1.192;2022-09-13T13:46:40;100546.72;;;24.88;36.71
46756;BME280;32506;52.826;-1.192;2022-09-13T13:57:31;100544.91;;;24.84;36.90
46756;BME280;32506;52.826;-1.192;2022-09-13T14:00:17;100537.66;;;24.79;37.17
46756;BME280;32506;52.826;-1.192;2022-09-13T14:13:59;100535.47;;;24.53;36.44
46756;BME280;32506;52.826;-1.192;2022-09-13T14:16:36;100526.28;;;24.49;36.93
46756;BME280;32506;52.826;-1.192;2022-09-13T14:21:34;100524.97;;;24.46;37.39
46756;BME280;32506;52.826;-1.192;2022-09-13T14:24:21;100519.19;;;24.48;37.87
46756;BME280;32506;52.826;-1.192;2022-09-13T14:26:53;100520.44;;;24.42;37.86
46756;BME280;32506;52.826;-1.192;2022-09-13T14:29:22;100526.53;;;24.39;38.54
46756;BME280;32506;52.826;-1.192;2022-09-13T14:31:51;100515.72;;;24.34;38.92
46756;BME280;32506;52.826;-1.192;2022-09-13T14:34:29;100515.50;;;24.30;37.92
46756;BME280;32506;52.826;-1.192;2022-09-13T14:37:01;100516.44;;;24.25;38.28
46756;BME280;32506;52.826;-1.192;2022-09-13T14:39:28;100518.97;;;24.22;39.08
46756;BME280;32506;52.826;-1.192;2022-09-13T14:42:13;100522.81;;;24.21;39.29
46756;BME280;32506;52.826;-1.192;2022-09-13T14:44:45;100522.13;;;24.15;38.34
46756;BME280;32506;52.826;-1.192;2022-09-13T14:49:57;100511.22;;;24.01;38.74
46756;BME280;32506;52.826;-1.192;2022-09-13T14:52:36;100516.78;;;23.96;38.63
46756;BME280;32506;52.826;-1.192;2022-09-13T14:55:07;100507.09;;;23.90;38.52
46756;BME280;32506;52.826;-1.192;2022-09-13T14:57:38;100511.81;;;23.84;39.15
46756;BME280;32506;52.826;-1.192;2022-09-13T15:00:13;100507.25;;;23.79;38.85
46756;BME280;32506;52.826;-1.192;2022-09-13T15:02:50;100511.69;;;23.75;39.50
46756;BME280;32506;52.826;-1.192;2022-09-13T15:05:23;100507.47;;;23.69;39.55
46756;BME280;32506;52.826;-1.192;2022-09-13T15:07:49;100507.25;;;23.66;39.58
46756;BME280;32506;52.826;-1.192;2022-09-13T15:10:27;100498.28;;;23.65;39.52
46756;BME280;32506;52.826;-1.192;2022-09-13T15:15:38;100501.91;;;23.60;39.18
46756;BME280;32506;52.826;-1.192;2022-09-13T15:21:03;100485.22;;;23.62;39.62
46756;BME280;32506;52.826;-1.192;2022-09-13T15:23:38;100488.16;;;23.66;39.67
46756;BME280;32506;52.826;-1.192;2022-09-13T15:26:18;100484.03;;;23.68;39.19
46756;BME280;32506;52.826;-1.192;2022-09-13T15:36:38;100491.41;;;23.82;40.00
46756;BME280;32506;52.826;-1.192;2022-09-13T15:41:34;100490.69;;;23.76;39.56
46756;BME280;32506;52.826;-1.192;2022-09-13T15:44:01;100477.47;;;23.69;39.45
46756;BME280;32506;52.826;-1.192;2022-09-13T15:46:27;100481.09;;;23.65;38.99
46756;BME280;32506;52.826;-1.192;2022-09-13T15:49:00;100475.44;;;23.61;39.11
46756;BME280;32506;52.826;-1.192;2022-09-13T15:51:26;100475.72;;;23.59;39.47
46756;BME280;32506;52.826;-1.192;2022-09-13T15:53:52;100468.38;;;23.60;39.83
46756;BME280;32506;52.826;-1.192;2022-09-13T15:56:26;100468.06;;;23.61;38.47
46756;BME280;32506;52.826;-1.192;2022-09-13T15:58:52;100468.84;;;23.62;39.61
46756;BME280;32506;52.826;-1.192;2022-09-13T16:01:18;100470.47;;;23.63;39.53
46756;BME280;32506;52.826;-1.192;2022-09-13T16:03:43;100464.22;;;23.62;39.41
46756;BME280;32506;52.826;-1.192;2022-09-13T16:06:09;100459.88;;;23.61;39.32
46756;BME280;32506;52.826;-1.192;2022-09-13T16:08:35;100458.25;;;23.60;39.34
46756;BME280;32506;52.826;-1.192;2022-09-13T16:11:01;100460.50;;;23.58;38.46
46756;BME280;32506;52.826;-1.192;2022-09-13T16:13:27;100457.56;;;23.55;39.24